createdAt,value
2019-04-19T00:02:08.104Z,4.67
2019-04-19T00:04:40.389Z,3.60
2019-04-19T00:07:13.185Z,3.90
2019-04-19T00:09:50.176Z,4.50
2019-04-19T00:12:25.543Z,3.93
2019-04-19T00:14:44.415Z,3.40
2019-04-19T00:17:20.605Z,3.70
2019-04-19T00:20:12.445Z,3.87
2019-04-19T00:22:33.207Z,4.10
2019-04-19T00:24:50.103Z,4.57
2019-04-19T00:27:20.151Z,5.00
2019-04-19T00:29:58.175Z,5.77
2019-04-19T00:32:37.244Z,4.60
2019-04-19T00:34:53.103Z,3.90
2019-04-19T00:37:22.849Z,3.43
2019-04-19T00:40:15.610Z,4.50
2019-04-19T00:42:57.181Z,3.73
2019-04-19T00:45:49.483Z,3.50
2019-04-19T00:48:26.243Z,3.60
2019-04-19T00:50:54.016Z,3.60
2019-04-19T00:53:24.330Z,3.30
2019-04-19T00:55:53.592Z,4.33
2019-04-19T00:58:18.500Z,4.03
2019-04-19T01:00:44.611Z,3.57
2019-04-19T01:03:16.195Z,3.40
2019-04-19T01:05:55.410Z,4.07
2019-04-19T01:08:20.970Z,4.50
2019-04-19T01:11:06.259Z,3.63
2019-04-19T01:13:40.441Z,3.90
2019-04-19T01:16:05.906Z,3.30
2019-04-19T01:18:36.890Z,3.60
2019-04-19T01:20:54.696Z,4.40
2019-04-19T01:23:27.087Z,3.57
2019-04-19T01:26:05.209Z,3.37
2019-04-19T01:28:33.426Z,3.93
2019-04-19T01:31:09.953Z,4.13
2019-04-19T01:33:39.961Z,3.40
2019-04-19T01:36:08.270Z,3.17
2019-04-19T01:38:44.537Z,3.23
2019-04-19T01:41:26.776Z,3.80
2019-04-19T01:43:59.814Z,4.40
2019-04-19T01:46:44.849Z,4.77
2019-04-19T01:49:13.791Z,4.67
2019-04-19T01:52:02.459Z,4.40
2019-04-19T01:54:53.381Z,3.43
2019-04-19T01:56:57.189Z,3.80
2019-04-19T01:59:26.007Z,3.47
2019-04-19T02:02:03.799Z,3.97
2019-04-19T02:04:29.980Z,4.73
2019-04-19T02:06:58.412Z,4.47
2019-04-19T02:09:42.419Z,4.53
2019-04-19T02:12:16.875Z,4.80
2019-04-19T02:14:40.283Z,4.50
2019-04-19T02:17:08.507Z,4.00
2019-04-19T02:19:36.587Z,4.80
2019-04-19T02:22:15.121Z,3.83
2019-04-19T02:24:44.174Z,4.97
2019-04-19T02:27:11.819Z,4.87
2019-04-19T02:29:49.799Z,4.17
2019-04-19T02:32:37.484Z,3.47
2019-04-19T02:35:11.768Z,3.80
2019-04-19T02:45:17.593Z,4.30
2019-04-19T02:50:14.280Z,3.83
2019-04-19T02:52:47.258Z,4.10
2019-04-19T02:55:22.953Z,4.17
2019-04-19T02:58:15.486Z,4.13
2019-04-19T03:04:08.954Z,3.93
2019-04-19T03:06:04.005Z,4.07
2019-04-19T03:08:35.505Z,3.70
2019-04-19T03:11:39.030Z,4.10
2019-04-19T03:14:14.034Z,4.60
2019-04-19T03:17:07.280Z,5.03
2019-04-19T03:19:43.859Z,4.23
2019-04-19T03:22:31.107Z,4.40
2019-04-19T03:25:10.888Z,3.50
2019-04-19T03:27:51.122Z,3.67
2019-04-19T03:30:35.649Z,4.60
2019-04-19T05:42:46.977Z,4.60
2019-04-19T05:47:43.926Z,4.37
2019-04-19T05:50:25.526Z,4.70
2019-04-19T05:52:47.670Z,4.53
2019-04-19T05:55:05.029Z,5.03
2019-04-19T05:57:51.195Z,4.70
2019-04-19T06:00:20.743Z,5.43
2019-04-19T06:02:53.134Z,4.73
2019-04-19T06:05:37.695Z,5.07
2019-04-19T06:07:53.817Z,4.40
2019-04-19T06:10:15.659Z,5.00
2019-04-19T06:12:51.499Z,4.60
2019-04-19T06:15:41.955Z,4.10
2019-04-19T06:18:27.059Z,4.53
2019-04-19T06:21:04.545Z,4.97
2019-04-19T06:23:40.009Z,4.60
2019-04-19T06:26:36.963Z,4.40
2019-04-19T06:28:44.403Z,4.50
2019-04-19T06:31:14.347Z,4.30
2019-04-19T06:33:38.524Z,4.63
2019-04-19T06:35:58.479Z,4.63
2019-04-19T06:38:22.654Z,4.20
2019-04-19T06:40:59.848Z,4.37
2019-04-19T06:43:34.848Z,3.97
2019-04-19T06:46:09.639Z,3.60
2019-04-19T06:48:29.948Z,3.37
2019-04-19T06:51:02.447Z,4.63
2019-04-19T06:53:39.652Z,3.63
2019-04-19T06:56:12.149Z,3.90
2019-04-19T06:58:42.272Z,3.70
2019-04-19T07:01:16.330Z,3.00
2019-04-19T07:03:36.429Z,3.70
2019-04-19T07:06:23.754Z,3.80
2019-04-19T07:11:31.321Z,3.00
2019-04-19T07:13:50.787Z,3.17
2019-04-19T07:16:35.553Z,3.67
2019-04-19T07:18:56.146Z,3.37
2019-04-19T07:21:35.570Z,3.00
2019-04-19T07:24:07.870Z,3.33
2019-04-19T07:26:37.644Z,3.20
2019-04-19T07:28:49.424Z,3.90
2019-04-19T07:31:20.109Z,3.90
2019-04-19T07:34:03.502Z,3.67
2019-04-19T07:36:40.262Z,3.77
2019-04-19T07:39:08.805Z,3.75
2019-04-19T07:41:37.652Z,3.40
2019-04-19T07:44:16.428Z,3.80
2019-04-19T07:47:05.506Z,3.13
2019-04-19T07:49:17.200Z,2.90
2019-04-19T07:51:57.237Z,4.00
2019-04-19T07:54:25.258Z,4.97
2019-04-19T07:57:10.042Z,4.13
2019-04-19T07:59:49.110Z,3.53
2019-04-19T08:04:58.739Z,3.60
2019-04-19T08:07:32.328Z,4.60
2019-04-19T08:10:00.193Z,4.93
2019-04-19T08:12:23.921Z,5.50
2019-04-19T08:14:57.872Z,4.43
2019-04-19T08:27:22.643Z,3.40
2019-04-19T08:29:50.378Z,3.53
2019-04-19T08:32:13.333Z,4.20
2019-04-19T08:34:47.047Z,3.40
2019-04-19T08:37:23.963Z,5.57
2019-04-19T08:40:02.731Z,3.60
2019-04-19T08:42:34.391Z,5.90
2019-04-19T08:44:58.193Z,4.10
2019-04-19T08:47:46.337Z,7.83
2019-04-19T08:50:36.169Z,4.80
2019-04-19T08:53:24.081Z,3.90
2019-04-19T08:55:57.933Z,9.40
2019-04-19T08:58:16.383Z,6.77
2019-04-19T09:01:04.766Z,11.30
2019-04-19T09:03:37.605Z,28.27
2019-04-19T09:06:34.003Z,25.30
2019-04-19T09:08:33.381Z,4.00
2019-04-19T09:11:05.809Z,9.10
2019-04-19T09:13:37.901Z,15.43
2019-04-19T09:16:06.820Z,17.53
2019-04-19T09:18:46.478Z,10.30
2019-04-19T09:21:10.682Z,15.53
2019-04-19T09:23:35.159Z,16.53
2019-04-19T09:26:12.874Z,16.43
2019-04-19T09:28:50.495Z,14.93
2019-04-19T09:31:16.977Z,9.73
2019-04-19T09:33:37.581Z,9.40
2019-04-19T09:36:10.575Z,15.75
2019-04-19T09:38:50.153Z,8.03
2019-04-19T09:41:20.571Z,11.43
2019-04-19T09:43:52.214Z,50.63
2019-04-19T09:46:10.566Z,91.33
2019-04-19T09:48:57.978Z,34.47
2019-04-19T09:51:27.880Z,53.60
2019-04-19T09:54:09.119Z,36.80
2019-04-19T09:56:33.766Z,10.40
2019-04-19T09:58:59.675Z,11.90
2019-04-19T10:01:21.088Z,6.90
2019-04-19T10:03:55.784Z,3.40
2019-04-19T10:06:22.542Z,3.73
2019-04-19T10:08:52.374Z,3.03
2019-04-19T10:11:23.093Z,4.50
2019-04-19T10:13:53.595Z,4.03
2019-04-19T10:16:28.578Z,3.60
2019-04-19T10:19:03.080Z,4.00
2019-04-19T10:22:00.316Z,4.27
2019-04-19T10:24:31.291Z,3.30
2019-04-19T10:27:09.116Z,2.93
2019-04-19T10:29:42.118Z,3.73
2019-04-19T10:32:30.779Z,3.33
2019-04-19T10:35:01.135Z,4.40
2019-04-19T10:37:31.517Z,2.80
2019-04-19T10:40:02.027Z,2.77
2019-04-19T10:42:33.432Z,2.77
2019-04-19T10:45:03.358Z,2.70
2019-04-19T10:47:33.599Z,2.70
2019-04-19T10:50:17.018Z,3.90
2019-04-19T10:52:35.348Z,5.13
2019-04-19T10:55:06.291Z,3.43
2019-04-19T10:57:36.007Z,3.60
2019-04-19T11:00:07.152Z,3.40
2019-04-19T11:02:38.366Z,13.37
2019-04-19T11:05:09.221Z,7.37
2019-04-19T11:07:40.339Z,28.80
2019-04-19T11:10:11.842Z,9.53
2019-04-19T11:12:42.910Z,23.70
2019-04-19T11:15:13.028Z,10.27
2019-04-19T11:17:43.607Z,45.17
2019-04-19T11:20:26.163Z,26.07
2019-04-19T11:22:46.090Z,16.87
2019-04-19T11:25:15.859Z,9.90
2019-04-19T11:27:48.379Z,11.07
2019-04-19T11:30:35.223Z,38.43
2019-04-19T11:33:10.851Z,20.87
2019-04-19T11:35:45.633Z,64.90
2019-04-19T11:38:15.350Z,23.50
2019-04-19T11:44:22.403Z,10.23
2019-04-19T11:47:28.893Z,34.30
2019-04-19T11:50:37.945Z,21.10
2019-04-19T12:00:33.894Z,5.77
2019-04-19T14:18:24.721Z,12.00
2019-04-19T17:15:57.831Z,3.33
2019-04-19T17:18:38.912Z,3.27
2019-04-19T17:21:19.796Z,2.97
2019-04-19T19:30:35.961Z,3.03
2019-04-19T19:33:20.498Z,3.00
2019-04-19T19:36:02.823Z,2.67
2019-04-19T19:38:43.859Z,3.13
2019-04-19T19:42:14.410Z,2.80
2019-04-19T20:46:52.216Z,20.03
2019-04-19T20:49:23.509Z,14.03
2019-04-19T20:52:04.386Z,6.33
2019-04-19T20:54:54.536Z,5.97
2019-04-19T20:57:30.952Z,4.00
2019-04-19T20:59:50.946Z,4.20
2019-04-19T21:02:24.678Z,3.03
2019-04-19T21:04:56.805Z,3.40
2019-04-19T21:07:23.236Z,3.57
2019-04-19T21:09:51.661Z,5.70
2019-04-19T21:12:27.516Z,3.50
2019-04-19T21:14:53.115Z,5.00
2019-04-19T21:17:26.220Z,3.47
2019-04-19T21:22:25.657Z,3.70
2019-04-19T21:25:01.808Z,2.80
2019-04-19T21:27:25.774Z,2.90
2019-04-19T21:29:52.194Z,2.70
2019-04-19T21:32:27.488Z,2.70
2019-04-19T21:34:53.755Z,3.20
2019-04-19T21:37:31.572Z,3.37
2019-04-19T21:39:56.662Z,3.60
2019-04-19T21:42:29.537Z,3.10
2019-04-19T21:45:01.548Z,6.97
2019-04-19T21:47:34.027Z,3.30
2019-04-19T21:50:03.070Z,8.20
2019-04-19T21:52:33.815Z,7.13
2019-04-19T21:55:16.253Z,11.93
2019-04-19T21:57:38.004Z,9.13
2019-04-19T22:00:11.878Z,5.70
2019-04-19T22:02:45.014Z,4.13
2019-04-19T22:05:13.304Z,7.53
2019-04-19T22:07:46.394Z,5.83
2019-04-19T22:10:17.123Z,25.00
2019-04-19T22:12:48.250Z,6.60
2019-04-19T22:15:19.543Z,33.10
2019-04-19T22:17:56.119Z,9.30
2019-04-19T22:20:23.332Z,8.33
2019-04-19T22:22:53.899Z,9.30
2019-04-19T22:25:39.492Z,6.73
2019-04-19T22:27:55.320Z,6.50
2019-04-19T22:30:25.452Z,18.97
2019-04-19T22:32:58.400Z,19.87
2019-04-19T22:35:28.655Z,8.13
2019-04-19T22:38:00.937Z,8.83
2019-04-19T22:40:30.067Z,8.60
2019-04-19T22:43:04.844Z,10.73
2019-04-19T22:45:32.676Z,13.90
2019-04-19T22:48:10.278Z,7.57
2019-04-19T22:50:37.311Z,4.10
2019-04-19T22:53:05.656Z,4.30
2019-04-19T22:55:44.921Z,7.53
2019-04-19T22:58:10.382Z,3.17
2019-04-19T23:00:42.193Z,3.00
2019-04-19T23:03:23.961Z,3.53
2019-04-19T23:05:48.093Z,3.53
2019-04-19T23:08:24.556Z,3.23
2019-04-19T23:10:54.278Z,3.20
2019-04-19T23:13:23.214Z,2.60
2019-04-19T23:15:57.204Z,4.63
2019-04-19T23:18:26.941Z,4.07
2019-04-19T23:21:08.031Z,2.93
2019-04-19T23:23:29.844Z,2.80
2019-04-19T23:26:15.498Z,2.90
2019-04-19T23:28:36.604Z,2.40
2019-04-19T23:31:10.430Z,2.87
2019-04-19T23:33:36.496Z,2.90
2019-04-19T23:36:12.862Z,2.57
2019-04-19T23:38:41.270Z,3.80
2019-04-19T23:41:13.095Z,2.60
2019-04-19T23:43:45.577Z,3.23
2019-04-19T23:46:24.147Z,2.90
2019-04-19T23:48:47.790Z,5.10
2019-04-19T23:51:18.988Z,9.47
2019-04-19T23:53:50.154Z,6.00
2019-04-19T23:56:30.718Z,4.27
2019-04-19T23:58:54.265Z,3.50
